createdAt,value
2023-10-29T00:00:55.607Z,12.4
2023-10-29T00:03:37.727Z,12.4
2023-10-29T00:05:08.987Z,12.4
2023-10-29T00:06:11.595Z,12.3
2023-10-29T00:07:14.872Z,12.3
2023-10-29T00:08:15.628Z,12.3
2023-10-29T00:09:34.952Z,12.4
2023-10-29T00:10:35.576Z,12.4
2023-10-29T00:11:53.129Z,12.4
2023-10-29T00:12:54.587Z,12.5
2023-10-29T00:13:57.149Z,12.5
2023-10-29T00:14:58.642Z,12.5
2023-10-29T00:16:14.680Z,12.5
2023-10-29T00:17:15.610Z,12.5
2023-10-29T00:18:31.719Z,12.5
2023-10-29T00:19:32.642Z,12.5
2023-10-29T00:21:03.947Z,12.5
2023-10-29T00:22:05.627Z,12.4
2023-10-29T00:23:21.695Z,12.4
2023-10-29T00:24:22.596Z,12.4
2023-10-29T00:25:25.958Z,12.4
2023-10-29T00:26:26.672Z,12.4
2023-10-29T00:27:57.930Z,12.4
2023-10-29T00:28:58.607Z,12.3
2023-10-29T00:30:14.721Z,12.3
2023-10-29T00:31:15.613Z,12.2
2023-10-29T00:32:31.717Z,12.2
2023-10-29T00:33:32.629Z,12.2
2023-10-29T00:34:49.075Z,12.2
2023-10-29T00:35:49.658Z,12.2
2023-10-29T00:37:20.936Z,12.1
2023-10-29T00:38:21.642Z,12.1
2023-10-29T00:41:13.077Z,12.1
2023-10-29T00:42:14.594Z,12.1
2023-10-29T00:43:30.684Z,12.2
2023-10-29T00:44:31.627Z,12.1
2023-10-29T00:46:02.970Z,12.1
2023-10-29T00:47:03.627Z,12
2023-10-29T00:48:09.694Z,12
2023-10-29T00:49:10.615Z,12
2023-10-29T00:50:26.724Z,12
2023-10-29T00:51:27.577Z,11.9
2023-10-29T00:54:01.687Z,11.9
2023-10-29T00:55:17.713Z,11.8
2023-10-29T00:56:18.626Z,11.8
2023-10-29T00:57:19.921Z,11.7
2023-10-29T00:58:20.583Z,11.7
2023-10-29T00:59:26.626Z,11.7
2023-10-29T01:00:27.652Z,11.7
2023-10-29T01:01:58.938Z,11.7
2023-10-29T01:02:59.712Z,11.6
2023-10-29T01:04:15.696Z,11.5
2023-10-29T01:05:16.702Z,11.5
2023-10-29T01:06:32.723Z,11.4
2023-10-29T01:07:33.622Z,11.4
2023-10-29T01:10:51.716Z,11.3
2023-10-29T01:11:52.657Z,11.3
2023-10-29T01:13:08.715Z,11.3
2023-10-29T01:14:11.648Z,11.3
2023-10-29T01:15:31.197Z,11.3
2023-10-29T01:16:32.644Z,11.3
2023-10-29T01:17:49.069Z,11.3
2023-10-29T01:18:50.633Z,11.2
2023-10-29T01:20:08.903Z,11.2
2023-10-29T01:21:11.615Z,11.2
2023-10-29T01:22:30.054Z,11.1
2023-10-29T01:23:31.647Z,11.1
2023-10-29T01:24:47.809Z,11.1
2023-10-29T01:25:48.627Z,11
2023-10-29T01:27:19.963Z,11
2023-10-29T01:28:20.642Z,11
2023-10-29T01:29:52.014Z,11
2023-10-29T01:30:52.648Z,10.9
2023-10-29T01:32:08.722Z,10.9
2023-10-29T01:33:11.715Z,11
2023-10-29T01:34:27.720Z,11
2023-10-29T01:35:28.661Z,11
2023-10-29T01:36:59.962Z,11
2023-10-29T01:38:00.670Z,11
2023-10-29T01:39:16.758Z,11.1
2023-10-29T01:40:17.644Z,11.1
2023-10-29T01:41:33.741Z,11.1
2023-10-29T01:42:34.636Z,11.2
2023-10-29T01:43:52.057Z,11.2
2023-10-29T01:44:53.700Z,11.2
2023-10-29T01:47:48.935Z,11.3
2023-10-29T01:49:19.980Z,11.3
2023-10-29T01:50:35.907Z,11.4
2023-10-29T01:52:06.967Z,11.4
2023-10-29T01:53:22.907Z,11.4
2023-10-29T01:54:39.954Z,11.4
2023-10-29T01:55:40.591Z,11.4
2023-10-29T01:57:11.975Z,11.4
2023-10-29T01:58:14.648Z,11.5
2023-10-29T01:59:33.407Z,11.5
2023-10-29T02:00:34.637Z,11.6
2023-10-29T02:02:05.978Z,11.7
2023-10-29T02:03:08.840Z,11.7
2023-10-29T02:04:11.402Z,11.8
2023-10-29T02:05:12.640Z,11.8
2023-10-29T02:07:55.673Z,11.7
2023-10-29T02:09:02.278Z,11.7
2023-10-29T02:10:03.676Z,11.6
2023-10-29T02:11:19.731Z,11.6
2023-10-29T02:12:20.658Z,11.6
2023-10-29T02:15:25.734Z,11.6
2023-10-29T02:16:26.639Z,11.6
2023-10-29T02:17:58.037Z,11.6
2023-10-29T02:18:58.670Z,11.6
2023-10-29T02:21:31.665Z,11.7
2023-10-29T02:24:20.654Z,11.7
2023-10-29T02:25:52.003Z,11.6
2023-10-29T02:26:52.718Z,11.6
2023-10-29T02:28:08.751Z,11.4
2023-10-29T02:29:11.710Z,11.4
2023-10-29T02:30:13.828Z,11.3
2023-10-29T02:31:14.676Z,11.4
2023-10-29T02:36:57.764Z,11.4
2023-10-29T02:38:13.740Z,11.3
2023-10-29T02:39:14.661Z,11.3
2023-10-29T02:40:46.001Z,11.3
2023-10-29T02:41:46.721Z,11.4
2023-10-29T02:43:18.023Z,11.4
2023-10-29T02:44:20.677Z,11.5
2023-10-29T02:47:25.850Z,11.5
2023-10-29T02:48:26.809Z,11.5
2023-10-29T02:51:11.703Z,11.6
2023-10-29T02:52:27.814Z,11.5
2023-10-29T02:53:28.688Z,11.5
2023-10-29T02:56:18.780Z,11.5
2023-10-29T02:57:19.668Z,11.6
2023-10-29T02:58:35.805Z,11.6
2023-10-29T02:59:36.765Z,11.6
2023-10-29T03:04:44.909Z,11.8
2023-10-29T03:06:00.797Z,11.8
2023-10-29T03:07:01.683Z,11.7
2023-10-29T03:08:17.787Z,11.8
2023-10-29T03:09:18.673Z,11.8
2023-10-29T03:10:36.114Z,11.8
2023-10-29T03:11:37.710Z,11.8
2023-10-29T03:14:31.198Z,11.8
2023-10-29T03:15:32.630Z,11.9
2023-10-29T03:17:04.029Z,11.9
2023-10-29T03:18:04.810Z,11.9
2023-10-29T03:19:20.769Z,11.9
2023-10-29T03:20:21.713Z,11.9
2023-10-29T03:21:37.785Z,11.8
2023-10-29T03:22:38.703Z,11.8
2023-10-29T03:25:01.819Z,11.8
2023-10-29T03:27:21.743Z,11.9
2023-10-29T03:28:53.055Z,11.9
2023-10-29T03:29:53.706Z,11.9
2023-10-29T03:30:55.879Z,12
2023-10-29T03:31:57.265Z,12
2023-10-29T03:33:13.915Z,12
2023-10-29T03:34:14.701Z,12
2023-10-29T03:35:30.809Z,12.1
2023-10-29T03:36:31.675Z,12.1
2023-10-29T03:39:52.310Z,12.2
2023-10-29T03:41:08.969Z,12.2
2023-10-29T03:43:58.292Z,12.2
2023-10-29T03:45:01.972Z,12.2
2023-10-29T03:46:02.720Z,12.3
2023-10-29T03:47:18.784Z,12.3
2023-10-29T03:48:19.745Z,12.3
2023-10-29T03:50:47.743Z,12.3
2023-10-29T03:52:19.053Z,12.4
2023-10-29T03:53:20.712Z,12.4
2023-10-29T03:55:45.713Z,12.4
2023-10-29T03:56:50.851Z,12.4
2023-10-29T03:57:51.714Z,12.4
2023-10-29T03:58:54.940Z,12.3
2023-10-29T03:59:55.741Z,12.3
2023-10-29T04:01:12.323Z,12.3
2023-10-29T04:02:13.737Z,12.2
2023-10-29T04:03:29.895Z,12.2
2023-10-29T04:04:30.745Z,12.2
2023-10-29T04:05:51.111Z,12.2
2023-10-29T04:06:51.730Z,12.2
2023-10-29T04:08:07.830Z,12.2
2023-10-29T04:09:10.757Z,12.1
2023-10-29T04:10:26.787Z,12.1
2023-10-29T04:11:27.734Z,12.1
2023-10-29T04:13:00.665Z,12
2023-10-29T04:14:01.745Z,12
2023-10-29T04:15:17.797Z,12
2023-10-29T04:16:18.772Z,11.9
2023-10-29T04:17:24.662Z,11.8
2023-10-29T04:18:25.733Z,11.7
2023-10-29T04:19:57.068Z,11.7
2023-10-29T04:20:57.736Z,11.6
2023-10-29T04:22:01.128Z,11.6
2023-10-29T04:23:02.721Z,11.5
2023-10-29T04:24:07.780Z,11.5
2023-10-29T04:25:08.706Z,11.5
2023-10-29T04:26:24.806Z,11.5
2023-10-29T04:27:25.710Z,11.5
2023-10-29T04:28:31.207Z,11.5
2023-10-29T04:29:32.748Z,11.5
2023-10-29T04:30:48.849Z,11.5
2023-10-29T04:31:49.757Z,11.5
2023-10-29T04:33:08.004Z,11.5
2023-10-29T04:34:10.726Z,11.5
2023-10-29T04:35:12.061Z,11.5
2023-10-29T04:36:12.718Z,11.5
2023-10-29T04:37:17.396Z,11.5
2023-10-29T04:38:18.740Z,11.5
2023-10-29T04:39:37.062Z,11.5
2023-10-29T04:40:37.737Z,11.5
2023-10-29T04:44:13.101Z,11.4
2023-10-29T04:45:13.796Z,11.4
2023-10-29T04:46:29.858Z,11.4
2023-10-29T04:47:30.806Z,11.4
2023-10-29T04:48:35.858Z,11.4
2023-10-29T04:49:36.733Z,11.4
2023-10-29T04:50:52.854Z,11.4
2023-10-29T04:51:53.724Z,11.3
2023-10-29T04:52:58.886Z,11.3
2023-10-29T04:53:59.797Z,11.4
2023-10-29T04:55:15.833Z,11.4
2023-10-29T04:56:16.721Z,11.5
2023-10-29T04:57:32.816Z,11.5
2023-10-29T04:58:33.738Z,11.5
2023-10-29T04:59:49.977Z,11.5
2023-10-29T05:00:50.714Z,11.5
2023-10-29T05:02:08.173Z,11.4
2023-10-29T05:03:10.864Z,11.3
2023-10-29T05:04:15.664Z,11.4
2023-10-29T05:05:16.765Z,11.4
2023-10-29T05:08:08.599Z,11.4
2023-10-29T05:09:09.746Z,11.4
2023-10-29T05:10:25.831Z,11.4
2023-10-29T05:11:26.777Z,11.4
2023-10-29T05:12:29.209Z,11.4
2023-10-29T05:13:30.760Z,11.5
2023-10-29T05:15:53.760Z,11.5
2023-10-29T05:19:14.080Z,11.6
2023-10-29T05:20:16.772Z,11.6
2023-10-29T05:21:32.846Z,11.6
2023-10-29T05:22:33.770Z,11.6
2023-10-29T05:24:58.739Z,11.5
2023-10-29T05:26:14.848Z,11.5
2023-10-29T05:27:15.744Z,11.6
2023-10-29T05:28:17.310Z,11.6
2023-10-29T05:29:34.024Z,11.6
2023-10-29T05:30:49.865Z,11.6
2023-10-29T05:31:50.788Z,11.7
2023-10-29T05:33:22.209Z,11.6
2023-10-29T05:34:24.793Z,11.7
2023-10-29T05:35:41.475Z,11.8
2023-10-29T05:36:42.731Z,11.8
2023-10-29T05:37:47.624Z,11.9
2023-10-29T05:39:04.067Z,11.9
2023-10-29T05:40:19.875Z,11.8
2023-10-29T05:41:20.753Z,11.8
2023-10-29T05:42:23.064Z,11.9
2023-10-29T05:43:23.755Z,11.9
2023-10-29T05:46:29.209Z,11.8
2023-10-29T05:47:30.828Z,11.8
2023-10-29T05:48:36.917Z,11.8
2023-10-29T05:49:37.756Z,11.8
2023-10-29T05:50:39.035Z,11.8
2023-10-29T05:51:39.777Z,11.8
2023-10-29T05:52:46.888Z,11.8
2023-10-29T05:53:47.766Z,11.7
2023-10-29T05:55:06.461Z,11.7
2023-10-29T05:56:23.011Z,11.7
2023-10-29T05:57:56.895Z,11.7
2023-10-29T05:58:57.769Z,11.6
2023-10-29T06:01:37.009Z,11.4
2023-10-29T06:02:53.066Z,11.4
2023-10-29T06:03:53.930Z,11.4
2023-10-29T06:04:55.036Z,11.3
2023-10-29T06:05:55.892Z,11.3
2023-10-29T06:07:11.856Z,11.2
2023-10-29T06:08:14.801Z,11.1
2023-10-29T06:09:24.024Z,11
2023-10-29T06:10:20.813Z,11
2023-10-29T06:11:39.730Z,10.9
2023-10-29T06:12:40.778Z,10.9
2023-10-29T06:13:42.018Z,10.8
2023-10-29T06:14:58.132Z,10.8
2023-10-29T06:16:14.471Z,10.7
2023-10-29T06:17:23.620Z,10.8
2023-10-29T06:18:16.851Z,10.9
2023-10-29T06:19:17.775Z,10.9
2023-10-29T06:20:33.894Z,11
2023-10-29T06:21:34.779Z,11
2023-10-29T06:23:55.829Z,11
2023-10-29T06:24:56.965Z,11.1
2023-10-29T06:25:57.813Z,11
2023-10-29T06:27:13.860Z,11
2023-10-29T06:28:15.749Z,11
2023-10-29T06:30:44.814Z,11.1
2023-10-29T06:33:50.291Z,11.2
2023-10-29T06:35:06.042Z,11.2
2023-10-29T06:36:23.876Z,11.1
2023-10-29T06:37:24.775Z,11.1
2023-10-29T06:38:27.334Z,11.1
2023-10-29T06:39:28.814Z,11.2
2023-10-29T06:40:44.888Z,11.2
2023-10-29T06:41:45.831Z,11.1
2023-10-29T06:45:05.929Z,11.1
2023-10-29T06:46:08.839Z,11.2
2023-10-29T06:47:24.880Z,11.2
2023-10-29T06:48:25.925Z,11.3
2023-10-29T06:49:28.074Z,11.3
2023-10-29T06:50:28.797Z,11.3
2023-10-29T06:51:44.891Z,11.4
2023-10-29T06:52:45.792Z,11.4
2023-10-29T06:54:01.907Z,11.4
2023-10-29T06:55:02.788Z,11.3
2023-10-29T06:57:22.787Z,11.4
2023-10-29T06:58:30.225Z,11.4
2023-10-29T06:59:31.810Z,11.3
2023-10-29T07:00:32.832Z,11.3
2023-10-29T07:01:36.287Z,11.2
2023-10-29T07:02:37.895Z,11.2
2023-10-29T07:03:53.994Z,11.2
2023-10-29T07:04:54.902Z,11.3
2023-10-29T07:05:56.095Z,11.3
2023-10-29T07:06:56.846Z,11.4
2023-10-29T07:08:12.888Z,11.4
2023-10-29T07:09:13.849Z,11.4
2023-10-29T07:12:06.319Z,11.5
2023-10-29T07:13:22.767Z,11.6
2023-10-29T07:14:23.996Z,11.8
2023-10-29T07:15:40.763Z,11.9
2023-10-29T07:16:41.647Z,12.1
2023-10-29T07:17:59.662Z,12.2
2023-10-29T07:19:00.726Z,12.3
2023-10-29T07:20:16.797Z,12.4
2023-10-29T07:21:17.672Z,12.4
2023-10-29T07:22:21.281Z,12.4
2023-10-29T07:23:37.938Z,12.4
2023-10-29T07:24:40.855Z,12.4
2023-10-29T07:25:41.662Z,12.4
2023-10-29T07:26:57.776Z,12.5
2023-10-29T07:27:58.669Z,12.5
2023-10-29T07:29:00.993Z,12.5
2023-10-29T07:30:01.783Z,12.4
2023-10-29T07:31:19.546Z,12.2
2023-10-29T07:32:18.695Z,12.1
2023-10-29T07:33:35.159Z,12.1
2023-10-29T07:34:36.689Z,12.2
2023-10-29T07:35:56.155Z,12.3
2023-10-29T07:36:57.715Z,12.4
2023-10-29T07:40:04.641Z,12.5
2023-10-29T07:41:05.693Z,12.5
2023-10-29T07:42:10.202Z,12.4
2023-10-29T07:43:11.679Z,12.4
2023-10-29T07:44:27.759Z,12.4
2023-10-29T07:45:28.697Z,12.4
2023-10-29T07:46:44.771Z,12.4
2023-10-29T07:47:45.702Z,12.4
2023-10-29T07:49:04.359Z,12.4
2023-10-29T07:50:06.077Z,12.5
2023-10-29T07:51:11.465Z,12.5
2023-10-29T07:52:12.740Z,12.5
2023-10-29T07:53:14.012Z,12.6
2023-10-29T07:54:14.809Z,12.7
2023-10-29T07:55:30.773Z,12.7
2023-10-29T07:56:31.710Z,12.7
2023-10-29T07:57:37.036Z,12.7
2023-10-29T07:58:53.626Z,12.9
2023-10-29T07:59:59.422Z,13
2023-10-29T08:01:17.971Z,13.2
2023-10-29T08:02:23.410Z,13.3
2023-10-29T08:03:39.553Z,13.4
2023-10-29T08:04:44.228Z,13.3
2023-10-29T08:05:50.212Z,13.3
2023-10-29T08:06:51.144Z,13.3
2023-10-29T08:08:11.765Z,13.4
2023-10-29T08:09:15.246Z,13.3
2023-10-29T08:10:15.273Z,13.4
2023-10-29T08:11:16.159Z,13.3
2023-10-29T08:12:17.414Z,13.3
2023-10-29T08:13:18.142Z,13.4
2023-10-29T08:14:19.277Z,13.5
2023-10-29T08:15:20.156Z,13.6
2023-10-29T08:16:25.027Z,13.6
2023-10-29T08:17:41.188Z,13.5
2023-10-29T08:18:47.016Z,13.5
2023-10-29T08:20:18.286Z,13.5
2023-10-29T08:21:24.839Z,13.5
2023-10-29T08:22:29.793Z,13.4
2023-10-29T08:23:42.361Z,13.5
2023-10-29T08:25:03.289Z,13.5
2023-10-29T08:26:11.502Z,13.6
2023-10-29T08:27:20.782Z,13.5
2023-10-29T08:28:25.674Z,13.6
2023-10-29T08:29:43.221Z,13.6
2023-10-29T08:30:48.511Z,13.8
2023-10-29T08:32:05.881Z,14
2023-10-29T08:33:16.300Z,14.1
2023-10-29T08:34:35.108Z,14.2
2023-10-29T08:35:40.076Z,14.3
2023-10-29T08:36:56.407Z,14.4
2023-10-29T08:38:05.789Z,14.2
2023-10-29T08:39:23.205Z,14.2
2023-10-29T08:40:39.210Z,14.2
2023-10-29T08:41:44.134Z,14.2
2023-10-29T08:43:00.073Z,14.2
2023-10-29T08:44:20.169Z,14.3
2023-10-29T08:45:38.192Z,14.4
2023-10-29T08:46:24.885Z,14.4
2023-10-29T08:47:29.635Z,14.3
2023-10-29T08:48:30.846Z,14.3
2023-10-29T08:49:35.845Z,14.3
2023-10-29T08:51:59.701Z,14.6
2023-10-29T08:53:15.813Z,14.7
2023-10-29T08:54:16.719Z,14.8
2023-10-29T08:55:34.208Z,14.9
2023-10-29T08:56:43.857Z,14.8
2023-10-29T08:58:02.259Z,14.7
2023-10-29T08:59:03.795Z,14.8
2023-10-29T09:00:05.103Z,14.7
2023-10-29T09:01:05.794Z,14.7
2023-10-29T09:02:10.683Z,14.6
2023-10-29T09:03:23.317Z,14.6
2023-10-29T09:04:54.575Z,14.7
2023-10-29T09:06:10.534Z,14.8
2023-10-29T09:07:15.147Z,14.8
2023-10-29T09:08:24.055Z,14.8
2023-10-29T09:09:28.815Z,14.7
2023-10-29T09:10:34.024Z,14.7
2023-10-29T09:11:38.643Z,14.8
2023-10-29T09:12:56.023Z,14.8
2023-10-29T09:14:12.858Z,14.9
2023-10-29T09:15:21.411Z,15
2023-10-29T09:16:39.801Z,15.1
2023-10-29T09:17:45.295Z,15.1
2023-10-29T09:18:49.679Z,15.1
2023-10-29T09:19:55.347Z,15
2023-10-29T09:20:59.968Z,15
2023-10-29T09:22:19.961Z,15
2023-10-29T09:23:26.627Z,15.1
2023-10-29T09:24:27.834Z,15.1
2023-10-29T09:25:28.562Z,15
2023-10-29T09:26:30.457Z,14.9
2023-10-29T09:27:31.619Z,14.9
2023-10-29T09:28:36.561Z,14.8
2023-10-29T09:29:57.266Z,14.8
2023-10-29T09:30:58.433Z,14.9
2023-10-29T09:32:03.714Z,14.8
2023-10-29T09:33:04.623Z,14.8
2023-10-29T09:34:20.504Z,14.8
2023-10-29T09:35:21.404Z,14.8
2023-10-29T09:36:27.535Z,14.8
2023-10-29T09:37:32.369Z,14.8
2023-10-29T09:38:37.262Z,14.8
2023-10-29T09:39:42.031Z,14.9
2023-10-29T09:40:58.496Z,14.9
2023-10-29T09:42:00.059Z,14.9
2023-10-29T09:43:07.823Z,15
2023-10-29T09:44:23.933Z,14.8
2023-10-29T09:45:24.873Z,14.9
2023-10-29T09:46:40.926Z,14.9
2023-10-29T09:47:45.805Z,15
2023-10-29T09:49:01.778Z,14.9
2023-10-29T09:50:02.754Z,14.9
2023-10-29T09:51:06.314Z,14.9
2023-10-29T09:52:15.744Z,14.9
2023-10-29T09:53:21.310Z,14.8
2023-10-29T09:54:22.345Z,14.8
2023-10-29T09:55:27.335Z,14.8
2023-10-29T09:56:43.203Z,14.8
2023-10-29T09:57:51.982Z,14.8
2023-10-29T09:58:52.826Z,14.9
2023-10-29T09:59:57.762Z,14.9
2023-10-29T10:01:13.807Z,15
2023-10-29T10:02:23.242Z,15
2023-10-29T10:03:24.549Z,15.2
2023-10-29T10:04:29.256Z,15.2
2023-10-29T10:05:45.315Z,15.2
2023-10-29T10:06:46.245Z,15.4
2023-10-29T10:08:02.320Z,15.4
2023-10-29T10:09:11.111Z,15.4
2023-10-29T10:10:15.842Z,15.4
2023-10-29T10:11:31.871Z,15.3
2023-10-29T10:12:32.876Z,15.3
2023-10-29T10:13:49.307Z,15.3
2023-10-29T10:14:50.308Z,15.3
2023-10-29T10:15:51.253Z,15.3
2023-10-29T10:16:52.177Z,15.4
2023-10-29T10:17:57.403Z,15.5
2023-10-29T10:18:58.204Z,15.4
2023-10-29T10:20:10.783Z,15.4
2023-10-29T10:21:23.150Z,15.4
2023-10-29T10:22:28.040Z,15.4
2023-10-29T10:23:44.228Z,15.4
2023-10-29T10:24:47.660Z,15.4
2023-10-29T10:25:50.187Z,15.5
2023-10-29T10:26:50.890Z,15.6
2023-10-29T10:28:03.430Z,15.6
2023-10-29T10:29:19.516Z,15.5
2023-10-29T10:30:35.687Z,15.5
2023-10-29T10:31:41.940Z,15.4
2023-10-29T10:32:43.449Z,15.3
2023-10-29T10:33:44.484Z,15.2
2023-10-29T10:35:15.736Z,15.2
2023-10-29T10:36:22.518Z,15.2
2023-10-29T10:37:30.997Z,15.3
2023-10-29T10:38:35.843Z,15.3
2023-10-29T10:39:40.708Z,15.4
2023-10-29T10:40:58.184Z,15.5
2023-10-29T10:42:10.477Z,15.8
2023-10-29T10:43:23.011Z,15.8
2023-10-29T10:44:27.831Z,15.8
2023-10-29T10:45:32.644Z,15.9
2023-10-29T10:46:52.933Z,15.9
2023-10-29T10:48:01.822Z,16
2023-10-29T10:49:18.024Z,16.3
2023-10-29T10:50:23.625Z,16.6
2023-10-29T10:51:28.325Z,16.7
2023-10-29T10:52:33.228Z,16.9
2023-10-29T10:53:49.250Z,17
2023-10-29T10:54:54.104Z,17.3
2023-10-29T10:56:03.644Z,17.6
2023-10-29T10:57:04.275Z,17.9
2023-10-29T10:58:11.862Z,18.1
2023-10-29T10:59:20.443Z,18.1
2023-10-29T11:00:25.377Z,18.3
2023-10-29T11:01:34.032Z,18.4
2023-10-29T11:02:38.967Z,18.5
2023-10-29T11:03:43.850Z,18.6
2023-10-29T11:04:48.926Z,18.5
2023-10-29T11:05:50.005Z,18.5
2023-10-29T11:06:55.444Z,18.3
2023-10-29T11:08:00.560Z,17.9
2023-10-29T11:09:05.221Z,17.8
2023-10-29T11:10:21.189Z,17.5
2023-10-29T11:11:26.035Z,17.4
2023-10-29T11:12:42.019Z,17.1
2023-10-29T11:13:46.832Z,17
2023-10-29T11:14:52.262Z,16.9
2023-10-29T11:15:57.523Z,16.8
2023-10-29T11:17:03.644Z,16.9
2023-10-29T11:18:08.512Z,17
2023-10-29T11:19:20.960Z,17.2
2023-10-29T11:20:25.788Z,17.3
2023-10-29T11:21:30.618Z,17.5
2023-10-29T11:22:39.362Z,17.6
2023-10-29T11:23:47.225Z,17.7
2023-10-29T11:24:56.012Z,17.7
2023-10-29T11:25:57.486Z,17.8
2023-10-29T11:27:11.285Z,17.9
2023-10-29T11:28:24.052Z,17.9
2023-10-29T11:29:40.403Z,17.8
2023-10-29T11:31:04.929Z,17.9
2023-10-29T11:32:14.446Z,18.2
2023-10-29T11:33:19.328Z,18.4
2023-10-29T11:34:22.192Z,18.3
2023-10-29T11:35:23.058Z,18.2
2023-10-29T11:36:24.309Z,18.1
2023-10-29T11:37:28.935Z,18
2023-10-29T11:38:35.273Z,17.9
2023-10-29T11:39:36.766Z,17.8
2023-10-29T11:40:45.525Z,17.7
2023-10-29T11:41:48.946Z,17.5
2023-10-29T11:42:50.446Z,17.5
2023-10-29T11:43:51.450Z,17.6
2023-10-29T11:44:58.374Z,17.7
2023-10-29T11:46:03.274Z,17.7
2023-10-29T11:47:08.091Z,17.7
2023-10-29T11:48:09.062Z,17.7
2023-10-29T11:49:25.095Z,17.6
2023-10-29T11:50:29.897Z,17.6
2023-10-29T11:51:34.766Z,17.6
2023-10-29T11:52:41.632Z,17.7
2023-10-29T11:53:46.443Z,17.7
2023-10-29T11:54:47.552Z,17.6
2023-10-29T11:55:56.135Z,17.6
2023-10-29T11:56:57.485Z,17.6
2023-10-29T11:57:58.528Z,17.6
2023-10-29T11:59:00.167Z,17.7
2023-10-29T12:00:05.247Z,17.7
2023-10-29T12:01:06.158Z,17.8
2023-10-29T12:02:11.109Z,17.7
2023-10-29T12:03:17.600Z,17.8
2023-10-29T12:05:51.722Z,17.8
2023-10-29T12:07:08.070Z,17.7
2023-10-29T12:08:10.700Z,17.5
2023-10-29T12:10:31.652Z,17.4
2023-10-29T12:11:32.958Z,17.4
2023-10-29T12:12:33.707Z,17.5
2023-10-29T12:13:38.052Z,17.5
2023-10-29T12:14:42.950Z,17.5
2023-10-29T12:15:47.575Z,17.5
2023-10-29T12:16:59.284Z,17.5
2023-10-29T12:18:00.350Z,17.6
2023-10-29T12:19:01.373Z,17.7
2023-10-29T12:20:02.258Z,17.7
2023-10-29T12:21:10.993Z,17.7
2023-10-29T12:22:12.130Z,17.7
2023-10-29T12:23:12.964Z,17.8
2023-10-29T12:24:13.958Z,17.8
2023-10-29T12:25:15.855Z,17.8
2023-10-29T12:26:16.989Z,17.9
2023-10-29T12:27:19.442Z,18
2023-10-29T12:28:28.714Z,18.1
2023-10-29T12:29:45.171Z,18.2
2023-10-29T12:30:46.700Z,18.3
2023-10-29T12:32:06.746Z,18.3
2023-10-29T12:33:11.482Z,18.3
2023-10-29T12:34:17.195Z,18.5
2023-10-29T12:35:18.383Z,18.5
2023-10-29T12:36:21.754Z,18.6
2023-10-29T12:37:23.359Z,18.6
2023-10-29T12:38:24.867Z,18.6
2023-10-29T12:39:26.349Z,18.6
2023-10-29T12:40:30.050Z,18.6
2023-10-29T12:41:31.344Z,18.7
2023-10-29T12:42:36.224Z,18.7
2023-10-29T12:43:41.096Z,18.6
2023-10-29T12:44:59.826Z,18.7
2023-10-29T12:46:01.127Z,18.7
2023-10-29T12:47:03.398Z,18.6
2023-10-29T12:48:05.123Z,18.5
2023-10-29T12:49:21.140Z,18.4
2023-10-29T12:50:25.916Z,18.3
2023-10-29T12:51:41.986Z,18.3
2023-10-29T12:52:46.839Z,18.3
2023-10-29T12:53:51.648Z,18.3
2023-10-29T12:54:56.530Z,18.2
2023-10-29T12:56:12.546Z,18.3
2023-10-29T12:57:19.384Z,18
2023-10-29T12:58:35.403Z,18
2023-10-29T12:59:36.333Z,18
2023-10-29T13:00:56.812Z,18
2023-10-29T13:01:55.303Z,17.8
2023-10-29T13:03:00.601Z,17.8
2023-10-29T13:04:01.379Z,17.8
2023-10-29T13:05:06.232Z,17.8
2023-10-29T13:06:07.286Z,17.8
2023-10-29T13:07:23.274Z,17.8
2023-10-29T13:08:28.041Z,17.7
2023-10-29T13:09:32.925Z,17.7
2023-10-29T13:10:39.401Z,17.7
2023-10-29T13:11:40.913Z,17.6
2023-10-29T13:12:58.039Z,17.6
2023-10-29T13:14:08.565Z,17.7
2023-10-29T13:14:59.902Z,17.7
2023-10-29T13:16:00.942Z,17.6
2023-10-29T13:17:01.970Z,17.6
2023-10-29T13:18:06.818Z,17.6
2023-10-29T13:19:07.882Z,17.7
2023-10-29T13:20:08.957Z,17.6
2023-10-29T13:21:12.076Z,17.6
2023-10-29T13:22:12.888Z,17.5
2023-10-29T13:23:15.000Z,17.5
2023-10-29T13:24:15.937Z,17.5
2023-10-29T13:25:19.640Z,17.5
2023-10-29T13:26:20.935Z,17.5
2023-10-29T13:27:21.895Z,17.4
2023-10-29T13:28:37.976Z,17.3
2023-10-29T13:29:38.884Z,17.3
2023-10-29T13:30:42.611Z,17.3
2023-10-29T13:31:43.914Z,17.3
2023-10-29T13:32:44.992Z,17.3
2023-10-29T13:33:48.465Z,17.3
2023-10-29T13:34:49.934Z,17.2
2023-10-29T13:36:21.278Z,17.3
2023-10-29T13:37:23.930Z,17.3
2023-10-29T13:38:30.456Z,17.3
2023-10-29T13:39:31.875Z,17.2
2023-10-29T13:40:48.002Z,17.3
2023-10-29T13:41:48.954Z,17.2
2023-10-29T13:42:53.789Z,17.2
2023-10-29T13:44:09.847Z,17.2
2023-10-29T13:45:12.827Z,17.3
2023-10-29T13:46:28.930Z,17.2
2023-10-29T13:47:29.827Z,17.3
2023-10-29T13:48:48.429Z,17.3
2023-10-29T13:49:49.781Z,17.3
2023-10-29T13:50:55.956Z,17.3
2023-10-29T13:51:55.846Z,17.3
2023-10-29T13:53:11.884Z,17.3
2023-10-29T13:54:14.821Z,17.3
2023-10-29T13:55:19.682Z,17.4
2023-10-29T13:56:39.306Z,17.3
2023-10-29T13:57:40.593Z,17.3
2023-10-29T13:58:56.688Z,17.3
2023-10-29T13:59:57.628Z,17.3
2023-10-29T14:01:02.551Z,17.4
2023-10-29T14:02:03.610Z,17.3
2023-10-29T14:03:09.581Z,17.3
2023-10-29T14:04:10.610Z,17.4
2023-10-29T14:06:30.634Z,17.3
2023-10-29T14:07:48.457Z,17.3
2023-10-29T14:08:49.668Z,17.3
2023-10-29T14:10:10.014Z,17.2
2023-10-29T14:11:12.678Z,17
2023-10-29T14:12:13.726Z,17
2023-10-29T14:13:18.605Z,17
2023-10-29T14:14:19.461Z,17
2023-10-29T14:15:20.516Z,17
2023-10-29T14:16:25.904Z,17
2023-10-29T14:17:26.487Z,17
2023-10-29T14:18:42.671Z,17
2023-10-29T14:19:43.471Z,17
2023-10-29T14:20:51.828Z,17
2023-10-29T14:21:53.342Z,17
2023-10-29T14:22:54.420Z,17
2023-10-29T14:23:55.347Z,17
2023-10-29T14:24:56.391Z,17
2023-10-29T14:26:13.057Z,16.9
2023-10-29T14:27:15.338Z,16.9
2023-10-29T14:28:16.332Z,16.9
2023-10-29T14:29:17.386Z,16.8
2023-10-29T14:30:20.517Z,16.8
2023-10-29T14:31:21.383Z,16.7
2023-10-29T14:32:26.857Z,16.8
2023-10-29T14:33:28.363Z,16.8
2023-10-29T14:34:44.577Z,16.8
2023-10-29T14:35:47.040Z,16.9
2023-10-29T14:36:49.139Z,17
2023-10-29T14:37:55.541Z,17.1
2023-10-29T14:38:56.375Z,17.3
2023-10-29T14:40:12.414Z,17.3
2023-10-29T14:41:15.390Z,17.4
2023-10-29T14:42:16.345Z,17.3
2023-10-29T14:43:22.021Z,17.3
2023-10-29T14:44:18.364Z,17.4
2023-10-29T14:45:19.396Z,17.4
2023-10-29T14:46:20.499Z,17.5
2023-10-29T14:47:21.354Z,17.6
2023-10-29T14:48:22.925Z,17.6
2023-10-29T14:49:24.452Z,17.6
2023-10-29T14:50:26.370Z,17.7
2023-10-29T14:51:27.338Z,17.6
2023-10-29T14:52:32.205Z,17.6
2023-10-29T14:53:48.313Z,17.5
2023-10-29T14:54:49.311Z,17.5
2023-10-29T14:56:05.283Z,17.5
2023-10-29T14:57:14.045Z,17.5
2023-10-29T14:58:07.225Z,17.5
2023-10-29T14:59:09.512Z,17.5
2023-10-29T15:00:11.248Z,17.5
2023-10-29T15:01:17.094Z,17.4
2023-10-29T15:02:18.210Z,17.4
2023-10-29T15:03:34.367Z,17.4
2023-10-29T15:04:35.189Z,17.4
2023-10-29T15:05:36.206Z,17.3
2023-10-29T15:06:55.648Z,17.3
2023-10-29T15:07:57.178Z,17.3
2023-10-29T15:08:58.223Z,17.3
2023-10-29T15:09:59.188Z,17.3
2023-10-29T15:11:04.509Z,17.2
2023-10-29T15:12:05.305Z,17
2023-10-29T15:13:06.349Z,16.9
2023-10-29T15:14:09.710Z,16.6
2023-10-29T15:15:23.048Z,16.3
2023-10-29T15:16:17.423Z,16.2
2023-10-29T15:17:22.146Z,16
2023-10-29T15:18:23.877Z,16.1
2023-10-29T15:19:34.086Z,16.1
2023-10-29T15:20:29.916Z,16.1
2023-10-29T15:21:35.842Z,16.1
2023-10-29T15:22:36.790Z,16
2023-10-29T15:23:45.489Z,15.9
2023-10-29T15:24:50.523Z,15.9
2023-10-29T15:25:51.310Z,15.8
2023-10-29T15:27:01.155Z,15.7
2023-10-29T15:28:07.572Z,15.7
2023-10-29T15:29:07.871Z,15.6
2023-10-29T15:30:10.381Z,15.7
2023-10-29T15:31:11.994Z,15.7
2023-10-29T15:32:27.980Z,15.7
2023-10-29T15:33:36.694Z,15.7
2023-10-29T15:34:41.487Z,15.8
2023-10-29T15:35:42.549Z,15.7
2023-10-29T15:36:47.687Z,15.7
2023-10-29T15:37:52.154Z,15.6
2023-10-29T15:39:07.736Z,15.6
2023-10-29T15:40:08.981Z,15.4
2023-10-29T15:41:09.744Z,15.3
2023-10-29T15:42:14.667Z,15.3
2023-10-29T15:43:19.513Z,15.3
2023-10-29T15:44:24.411Z,15.4
2023-10-29T15:45:34.010Z,15.4
2023-10-29T15:46:49.549Z,15.4
2023-10-29T15:47:58.298Z,15.3
2023-10-29T15:49:03.071Z,15.2
2023-10-29T15:50:04.176Z,15.3
2023-10-29T15:51:09.527Z,15.2
2023-10-29T15:52:14.025Z,15.2
2023-10-29T15:53:18.717Z,15.2
2023-10-29T15:54:35.044Z,15.2
2023-10-29T15:55:40.097Z,15.3
2023-10-29T15:56:48.633Z,15.3
2023-10-29T15:57:53.467Z,15.5
2023-10-29T15:58:54.549Z,15.6
2023-10-29T15:59:55.428Z,15.6
2023-10-29T16:01:01.877Z,15.6
2023-10-29T16:02:07.369Z,15.7
2023-10-29T16:03:08.695Z,15.8
2023-10-29T16:04:10.160Z,15.9
2023-10-29T16:05:26.270Z,16
2023-10-29T16:06:27.225Z,16.1
2023-10-29T16:07:31.399Z,16.1
2023-10-29T16:08:40.103Z,16.1
2023-10-29T16:09:51.559Z,16.1
2023-10-29T16:11:00.297Z,16.1